sensor_id;sensor_type;location;lat;lon;timestamp;P1;durP1;ratioP1;P2;durP2;ratioP2
38859;SDS011;24609;48.316;16.174;2022-09-13T00:00:40;4.32;;;3.08;;
38859;SDS011;24609;48.316;16.174;2022-09-13T00:03:06;2.80;;;2.40;;
38859;SDS011;24609;48.316;16.174;2022-09-13T00:05:34;5.38;;;2.58;;
38859;SDS011;24609;48.316;16.174;2022-09-13T00:08:00;3.28;;;2.40;;
38859;SDS011;24609;48.316;16.174;2022-09-13T00:10:26;3.63;;;2.67;;
38859;SDS011;24609;48.316;16.174;2022-09-13T00:12:52;4.10;;;3.22;;
38859;SDS011;24609;48.316;16.174;2022-09-13T00:15:19;5.45;;;3.33;;
38859;SDS011;24609;48.316;16.174;2022-09-13T00:17:44;3.88;;;3.03;;
38859;SDS011;24609;48.316;16.174;2022-09-13T00:20:11;5.45;;;3.75;;
38859;SDS011;24609;48.316;16.174;2022-09-13T00:22:36;5.18;;;3.28;;
38859;SDS011;24609;48.316;16.174;2022-09-13T00:25:03;4.85;;;3.10;;
38859;SDS011;24609;48.316;16.174;2022-09-13T00:27:31;6.82;;;3.72;;
38859;SDS011;24609;48.316;16.174;2022-09-13T00:29:57;6.15;;;3.00;;
38859;SDS011;24609;48.316;16.174;2022-09-13T00:32:23;3.53;;;2.78;;
38859;SDS011;24609;48.316;16.174;2022-09-13T00:34:49;6.88;;;3.25;;
38859;SDS011;24609;48.316;16.174;2022-09-13T00:37:14;5.70;;;2.95;;
38859;SDS011;24609;48.316;16.174;2022-09-13T00:39:40;3.67;;;2.83;;
38859;SDS011;24609;48.316;16.174;2022-09-13T00:42:09;8.68;;;3.03;;
38859;SDS011;24609;48.316;16.174;2022-09-13T00:44:54;4.07;;;2.70;;
38859;SDS011;24609;48.316;16.174;2022-09-13T00:50:20;7.57;;;3.13;;
38859;SDS011;24609;48.316;16.174;2022-09-13T00:53:27;5.63;;;3.13;;
38859;SDS011;24609;48.316;16.174;2022-09-13T00:58:40;4.65;;;3.25;;
38859;SDS011;24609;48.316;16.174;2022-09-13T01:01:11;3.92;;;2.45;;
38859;SDS011;24609;48.316;16.174;2022-09-13T01:03:41;4.68;;;2.92;;
38859;SDS011;24609;48.316;16.174;2022-09-13T01:06:10;4.65;;;2.35;;
38859;SDS011;24609;48.316;16.174;2022-09-13T01:08:40;4.72;;;2.85;;
38859;SDS011;24609;48.316;16.174;2022-09-13T01:11:10;5.18;;;2.35;;
38859;SDS011;24609;48.316;16.174;2022-09-13T01:13:43;5.10;;;3.55;;
38859;SDS011;24609;48.316;16.174;2022-09-13T01:16:09;5.75;;;3.92;;
38859;SDS011;24609;48.316;16.174;2022-09-13T01:18:35;6.30;;;3.45;;
38859;SDS011;24609;48.316;16.174;2022-09-13T01:30:21;4.43;;;3.17;;
38859;SDS011;24609;48.316;16.174;2022-09-13T01:35:45;5.03;;;3.10;;
38859;SDS011;24609;48.316;16.174;2022-09-13T01:46:03;4.38;;;2.70;;
38859;SDS011;24609;48.316;16.174;2022-09-13T01:51:10;4.78;;;3.13;;
38859;SDS011;24609;48.316;16.174;2022-09-13T01:59:05;8.73;;;3.45;;
38859;SDS011;24609;48.316;16.174;2022-09-13T02:01:51;7.20;;;2.83;;
38859;SDS011;24609;48.316;16.174;2022-09-13T02:04:44;4.88;;;3.25;;
38859;SDS011;24609;48.316;16.174;2022-09-13T02:07:23;5.45;;;3.22;;
38859;SDS011;24609;48.316;16.174;2022-09-13T02:10:05;5.28;;;3.40;;
38859;SDS011;24609;48.316;16.174;2022-09-13T02:12:45;6.03;;;3.15;;
38859;SDS011;24609;48.316;16.174;2022-09-13T02:15:17;6.60;;;3.35;;
38859;SDS011;24609;48.316;16.174;2022-09-13T02:17:49;5.43;;;3.00;;
38859;SDS011;24609;48.316;16.174;2022-09-13T02:20:24;4.13;;;2.83;;
38859;SDS011;24609;48.316;16.174;2022-09-13T02:22:55;4.70;;;3.20;;
38859;SDS011;24609;48.316;16.174;2022-09-13T02:25:23;4.88;;;3.17;;
38859;SDS011;24609;48.316;16.174;2022-09-13T02:27:53;4.97;;;2.45;;
38859;SDS011;24609;48.316;16.174;2022-09-13T02:30:23;4.43;;;3.08;;
38859;SDS011;24609;48.316;16.174;2022-09-13T02:33:22;4.10;;;2.83;;
38859;SDS011;24609;48.316;16.174;2022-09-13T02:35:55;3.95;;;2.97;;
38859;SDS011;24609;48.316;16.174;2022-09-13T02:41:15;4.53;;;2.97;;
38859;SDS011;24609;48.316;16.174;2022-09-13T02:43:50;4.40;;;3.28;;
38859;SDS011;24609;48.316;16.174;2022-09-13T02:49:20;5.53;;;3.75;;
38859;SDS011;24609;48.316;16.174;2022-09-13T02:52:11;7.60;;;3.33;;
38859;SDS011;24609;48.316;16.174;2022-09-13T02:54:54;5.20;;;3.55;;
38859;SDS011;24609;48.316;16.174;2022-09-13T03:00:26;3.83;;;2.83;;
38859;SDS011;24609;48.316;16.174;2022-09-13T03:02:53;5.15;;;3.05;;
38859;SDS011;24609;48.316;16.174;2022-09-13T03:05:21;5.22;;;2.83;;
38859;SDS011;24609;48.316;16.174;2022-09-13T03:07:47;6.00;;;3.47;;
38859;SDS011;24609;48.316;16.174;2022-09-13T03:10:13;10.30;;;4.30;;
38859;SDS011;24609;48.316;16.174;2022-09-13T03:31:30;11.00;;;4.25;;
38859;SDS011;24609;48.316;16.174;2022-09-13T03:34:11;7.10;;;3.33;;
38859;SDS011;24609;48.316;16.174;2022-09-13T03:36:45;7.10;;;4.13;;
38859;SDS011;24609;48.316;16.174;2022-09-13T03:39:24;7.78;;;4.10;;
38859;SDS011;24609;48.316;16.174;2022-09-13T03:41:57;7.63;;;4.70;;
38859;SDS011;24609;48.316;16.174;2022-09-13T03:44:26;6.75;;;3.72;;
38859;SDS011;24609;48.316;16.174;2022-09-13T03:46:56;7.15;;;4.00;;
38859;SDS011;24609;48.316;16.174;2022-09-13T03:49:24;14.40;;;4.82;;
38859;SDS011;24609;48.316;16.174;2022-09-13T03:51:52;8.02;;;4.18;;
38859;SDS011;24609;48.316;16.174;2022-09-13T03:54:20;9.63;;;4.32;;
